Time;durP1;ratioP1;P1;durP2;ratioP2;P2;SDS_P1;SDS_P2;PMS_P1;PMS_P2;Temp;Humidity;BMP_temperature;BMP_pressure;BME280_temperature;BME280_humidity;BME280_pressure;Samples;Min_cycle;Max_cycle;Signal;HPM_P1;HPM_P2
2022/12/28 00:01:23;;;;;;;15.60;10.00;;;;;;;;;;5020430;28;20038;-81
2022/12/28 00:03:49;;;;;;;14.55;9.60;;;;;;;;;;5026473;28;20026;-80
2022/12/28 00:06:15;;;;;;;15.43;10.63;;;;;;;;;;5039002;28;20119;-81
2022/12/28 00:08:41;;;;;;;17.40;9.55;;;;;;;;;;5023099;28;20044;-81
2022/12/28 00:11:08;;;;;;;16.67;10.25;;;;;;;;;;5015843;28;20506;-81
2022/12/28 00:13:35;;;;;;;15.43;8.93;;;;;;;;;;5019244;28;20064;-81
2022/12/28 00:16:07;;;;;;;16.05;8.90;;;;;;;;;;5019047;28;20026;-81
2022/12/28 00:18:34;;;;;;;14.57;9.13;;;;;;;;;;5034412;28;20033;-81
2022/12/28 00:21:00;;;;;;;16.92;9.13;;;;;;;;;;5025077;28;20775;-81
2022/12/28 00:23:27;;;;;;;15.63;9.02;;;;;;;;;;5020395;28;20022;-81
2022/12/28 00:25:53;;;;;;;14.85;7.32;;;;;;;;;;5018622;28;20030;-81
2022/12/28 00:28:19;;;;;;;14.98;9.63;;;;;;;;;;5019896;28;20654;-81
2022/12/28 00:30:46;;;;;;;15.13;8.95;;;;;;;;;;5033524;28;20338;-81
2022/12/28 00:33:12;;;;;;;13.63;9.00;;;;;;;;;;5023892;28;20034;-81
2022/12/28 00:35:38;;;;;;;15.55;9.65;;;;;;;;;;5019492;28;20079;-81
2022/12/28 00:38:04;;;;;;;14.10;9.18;;;;;;;;;;5019968;28;20124;-81
2022/12/28 00:40:30;;;;;;;15.07;8.70;;;;;;;;;;5018050;28;20046;-82
2022/12/28 00:42:56;;;;;;;11.50;7.82;;;;;;;;;;5008623;28;20062;-82
2022/12/28 00:45:22;;;;;;;13.07;8.25;;;;;;;;;;5029007;28;20033;-81
2022/12/28 00:47:48;;;;;;;15.05;8.20;;;;;;;;;;5027529;28;20058;-81
2022/12/28 00:50:14;;;;;;;9.55;5.90;;;;;;;;;;5019888;28;20026;-81
2022/12/28 00:52:40;;;;;;;9.45;5.70;;;;;;;;;;5019070;28;20056;-81
2022/12/28 00:55:06;;;;;;;9.10;5.43;;;;;;;;;;5018220;28;20018;-81
2022/12/28 00:57:32;;;;;;;8.55;5.35;;;;;;;;;;5017676;28;20147;-80
2022/12/28 00:59:58;;;;;;;10.75;5.65;;;;;;;;;;5019773;28;20108;-81
2022/12/28 01:02:24;;;;;;;8.38;5.20;;;;;;;;;;5016994;28;20026;-81
2022/12/28 01:04:50;;;;;;;12.23;5.18;;;;;;;;;;5017291;28;20372;-81
2022/12/28 01:07:16;;;;;;;10.63;5.50;;;;;;;;;;5018845;28;20018;-82
2022/12/28 01:09:42;;;;;;;8.95;5.82;;;;;;;;;;5017030;28;20037;-82
2022/12/28 01:12:08;;;;;;;9.38;5.40;;;;;;;;;;5021001;28;20033;-82
2022/12/28 01:14:34;;;;;;;12.38;6.47;;;;;;;;;;5018827;28;20038;-81
2022/12/28 01:17:01;;;;;;;8.40;4.68;;;;;;;;;;5018911;28;20049;-81
2022/12/28 01:19:27;;;;;;;10.25;6.15;;;;;;;;;;5019417;28;20018;-81
2022/12/28 01:21:53;;;;;;;9.60;5.72;;;;;;;;;;5014284;28;20049;-82
2022/12/28 01:24:19;;;;;;;8.23;5.38;;;;;;;;;;4998826;28;20041;-82
2022/12/28 01:26:45;;;;;;;10.27;5.40;;;;;;;;;;4999201;28;20030;-82
2022/12/28 01:29:11;;;;;;;8.70;6.07;;;;;;;;;;5007231;28;20377;-82
2022/12/28 01:31:37;;;;;;;9.10;6.10;;;;;;;;;;5030961;28;20030;-82
2022/12/28 01:34:03;;;;;;;10.98;6.20;;;;;;;;;;5018093;28;20053;-82
2022/12/28 01:36:31;;;;;;;12.38;6.43;;;;;;;;;;5019312;28;20028;-82
2022/12/28 01:38:58;;;;;;;9.82;5.95;;;;;;;;;;5018057;28;20084;-82
2022/12/28 01:41:25;;;;;;;10.88;5.95;;;;;;;;;;5003342;28;20022;-81
2022/12/28 01:43:54;;;;;;;9.07;6.15;;;;;;;;;;5019207;28;20061;-81
2022/12/28 01:46:21;;;;;;;10.95;6.38;;;;;;;;;;5019004;28;20068;-81
2022/12/28 01:48:54;;;;;;;12.02;6.30;;;;;;;;;;5008903;28;20041;-81
2022/12/28 01:51:21;;;;;;;12.05;6.85;;;;;;;;;;5047926;28;20529;-82
2022/12/28 01:53:47;;;;;;;10.45;7.32;;;;;;;;;;5032937;28;20026;-82
2022/12/28 01:56:13;;;;;;;9.80;6.45;;;;;;;;;;5020260;28;20022;-82
2022/12/28 01:58:39;;;;;;;12.57;6.60;;;;;;;;;;5026783;28;20060;-82
2022/12/28 02:01:06;;;;;;;11.63;6.15;;;;;;;;;;5032124;28;20041;-82
2022/12/28 02:03:33;;;;;;;14.32;7.32;;;;;;;;;;5038430;28;20021;-82
2022/12/28 02:06:00;;;;;;;10.70;6.18;;;;;;;;;;5031295;28;20025;-82
2022/12/28 02:08:29;;;;;;;11.80;7.13;;;;;;;;;;5015537;28;20022;-82
2022/12/28 02:10:55;;;;;;;10.80;7.07;;;;;;;;;;5016280;28;20451;-82
2022/12/28 02:13:23;;;;;;;11.02;6.97;;;;;;;;;;5010432;28;20558;-82
2022/12/28 02:15:49;;;;;;;10.38;7.53;;;;;;;;;;5017196;28;20030;-82
2022/12/28 02:18:16;;;;;;;13.68;8.00;;;;;;;;;;5018305;28;20034;-82
2022/12/28 02:20:51;;;;;;;9.35;6.68;;;;;;;;;;5018357;28;20026;-82
2022/12/28 02:23:23;;;;;;;10.85;6.65;;;;;;;;;;5018075;28;20484;-82
2022/12/28 02:26:05;;;;;;;11.02;6.97;;;;;;;;;;5022438;28;20057;-82
2022/12/28 02:28:49;;;;;;;10.88;6.40;;;;;;;;;;5028569;28;20029;-82
2022/12/28 02:31:36;;;;;;;12.18;6.78;;;;;;;;;;5016820;28;20041;-82
2022/12/28 02:34:25;;;;;;;12.45;6.93;;;;;;;;;;5009102;28;20521;-82
2022/12/28 02:37:08;;;;;;;13.68;7.03;;;;;;;;;;4997787;28;20065;-82
2022/12/28 02:39:41;;;;;;;11.77;7.20;;;;;;;;;;5023339;28;20017;-82
2022/12/28 02:42:10;;;;;;;9.75;6.13;;;;;;;;;;5016157;28;20032;-81
2022/12/28 02:50:08;;;;;;;12.18;7.10;;;;;;;;;;5014371;28;20115;-82
2022/12/28 02:52:37;;;;;;;12.55;7.30;;;;;;;;;;5016218;28;20030;-82
2022/12/28 02:57:50;;;;;;;11.50;7.50;;;;;;;;;;5017720;28;20084;-81
2022/12/28 03:00:18;;;;;;;10.10;6.60;;;;;;;;;;5009842;28;20029;-82
2022/12/28 03:02:50;;;;;;;12.23;6.97;;;;;;;;;;5023835;28;20040;-82
2022/12/28 03:08:27;;;;;;;10.73;6.18;;;;;;;;;;5020834;28;20028;-82
2022/12/28 03:11:00;;;;;;;11.63;6.90;;;;;;;;;;5017404;28;20037;-82
2022/12/28 03:13:42;;;;;;;12.45;7.00;;;;;;;;;;5016859;28;20030;-82
2022/12/28 03:16:12;;;;;;;11.90;6.63;;;;;;;;;;5016754;28;20033;-81
2022/12/28 03:32:29;;;;;;;13.07;6.90;;;;;;;;;;5039579;28;20171;-82
2022/12/28 03:34:55;;;;;;;13.35;6.57;;;;;;;;;;5029250;28;20428;-81
2022/12/28 03:37:26;;;;;;;11.48;6.80;;;;;;;;;;5020571;28;20030;-82
2022/12/28 03:39:52;;;;;;;10.30;6.78;;;;;;;;;;5020049;28;20030;-82
2022/12/28 03:45:22;;;;;;;13.07;6.93;;;;;;;;;;5025974;28;20061;-82
2022/12/28 03:47:49;;;;;;;12.82;6.72;;;;;;;;;;5016042;28;20269;-82
2022/12/28 03:50:16;;;;;;;10.77;7.13;;;;;;;;;;5020923;28;20072;-82
2022/12/28 03:52:43;;;;;;;12.85;7.50;;;;;;;;;;5033395;28;20105;-80
2022/12/28 03:55:10;;;;;;;12.55;7.15;;;;;;;;;;5041526;28;20057;-82
2022/12/28 03:57:36;;;;;;;12.50;7.47;;;;;;;;;;5027672;28;20075;-84
2022/12/28 04:00:02;;;;;;;10.57;6.65;;;;;;;;;;5019603;28;20037;-81
2022/12/28 04:02:28;;;;;;;10.38;6.82;;;;;;;;;;5023368;28;20050;-84
2022/12/28 04:04:54;;;;;;;17.70;9.75;;;;;;;;;;5035022;28;20429;-83
2022/12/28 04:07:20;;;;;;;18.27;9.25;;;;;;;;;;5019273;28;20037;-81
2022/12/28 04:09:46;;;;;;;18.77;9.70;;;;;;;;;;5014600;28;20054;-81
2022/12/28 04:12:13;;;;;;;15.63;8.93;;;;;;;;;;4998422;28;20022;-81
2022/12/28 04:14:39;;;;;;;14.85;8.52;;;;;;;;;;5011827;28;20038;-81
2022/12/28 04:17:05;;;;;;;15.45;8.30;;;;;;;;;;5020547;28;20042;-83
2022/12/28 04:19:31;;;;;;;14.07;7.68;;;;;;;;;;5018549;28;20029;-79
2022/12/28 04:21:57;;;;;;;14.13;7.95;;;;;;;;;;5018930;28;20144;-81
2022/12/28 04:24:23;;;;;;;13.70;7.22;;;;;;;;;;5021737;28;20493;-81
2022/12/28 04:26:49;;;;;;;13.50;8.02;;;;;;;;;;5022712;28;20120;-81
2022/12/28 04:29:15;;;;;;;14.68;7.72;;;;;;;;;;5023186;28;20065;-81
2022/12/28 04:31:41;;;;;;;12.07;7.25;;;;;;;;;;5019506;28;20034;-83
2022/12/28 04:34:07;;;;;;;12.88;7.30;;;;;;;;;;5018913;28;20056;-81
2022/12/28 04:36:33;;;;;;;12.13;7.78;;;;;;;;;;5018839;28;20273;-81
2022/12/28 04:39:00;;;;;;;11.70;7.25;;;;;;;;;;5016810;28;20444;-80
2022/12/28 04:41:26;;;;;;;13.98;8.18;;;;;;;;;;5018772;28;20030;-80
2022/12/28 04:43:54;;;;;;;14.40;7.85;;;;;;;;;;5029775;28;20544;-81
2022/12/28 04:46:20;;;;;;;13.13;6.95;;;;;;;;;;5018729;28;20429;-80
2022/12/28 04:48:46;;;;;;;13.15;7.60;;;;;;;;;;5020653;28;20033;-81
2022/12/28 04:51:15;;;;;;;12.65;8.18;;;;;;;;;;5023182;28;20029;-81
2022/12/28 04:53:41;;;;;;;14.90;7.45;;;;;;;;;;5018801;28;20053;-81
2022/12/28 04:56:08;;;;;;;16.48;8.82;;;;;;;;;;5018618;28;20017;-81
2022/12/28 04:58:34;;;;;;;13.15;8.00;;;;;;;;;;5011862;28;20053;-80
2022/12/28 05:01:03;;;;;;;13.50;8.13;;;;;;;;;;5019202;28;20507;-79
2022/12/28 05:03:29;;;;;;;14.55;8.25;;;;;;;;;;5001266;28;20068;-80
2022/12/28 05:05:59;;;;;;;14.20;8.18;;;;;;;;;;5015074;28;20060;-81
2022/12/28 05:08:25;;;;;;;11.75;7.35;;;;;;;;;;5018803;28;20034;-81
2022/12/28 05:10:51;;;;;;;15.68;7.95;;;;;;;;;;5017320;28;20484;-81
2022/12/28 05:13:17;;;;;;;13.38;7.82;;;;;;;;;;5020586;28;20179;-80
2022/12/28 05:15:43;;;;;;;16.60;8.75;;;;;;;;;;5020553;28;20534;-80
2022/12/28 05:18:09;;;;;;;13.95;8.60;;;;;;;;;;5018727;28;20105;-80
2022/12/28 05:20:35;;;;;;;15.57;8.93;;;;;;;;;;5017383;28;20032;-81
2022/12/28 05:23:01;;;;;;;15.93;8.55;;;;;;;;;;5017093;28;20036;-81
2022/12/28 05:25:27;;;;;;;12.90;7.95;;;;;;;;;;5019704;28;20613;-81
2022/12/28 05:27:54;;;;;;;14.07;8.10;;;;;;;;;;5036599;28;20472;-81
2022/12/28 05:30:20;;;;;;;13.38;7.80;;;;;;;;;;5026917;28;20109;-80
2022/12/28 05:32:46;;;;;;;14.48;8.50;;;;;;;;;;5015807;28;20109;-80
2022/12/28 05:35:12;;;;;;;15.40;7.53;;;;;;;;;;5010474;28;20068;-80
2022/12/28 05:37:38;;;;;;;11.65;7.35;;;;;;;;;;5013799;28;20026;-80
2022/12/28 05:40:04;;;;;;;13.30;7.25;;;;;;;;;;5006435;28;20477;-80
2022/12/28 05:42:31;;;;;;;11.63;7.18;;;;;;;;;;5030426;28;20033;-80
2022/12/28 05:44:57;;;;;;;14.80;7.93;;;;;;;;;;5017643;28;20030;-81
2022/12/28 05:47:23;;;;;;;12.77;7.38;;;;;;;;;;5024391;28;20041;-80
2022/12/28 05:49:49;;;;;;;12.00;7.47;;;;;;;;;;5018229;28;20038;-79
2022/12/28 05:52:15;;;;;;;15.40;9.30;;;;;;;;;;5018755;28;20030;-80
2022/12/28 05:54:41;;;;;;;18.33;9.43;;;;;;;;;;5019024;28;20032;-80
2022/12/28 05:57:07;;;;;;;12.10;7.75;;;;;;;;;;5016501;28;20496;-80
2022/12/28 05:59:33;;;;;;;14.00;8.30;;;;;;;;;;5017424;28;20018;-80
2022/12/28 06:01:59;;;;;;;14.15;7.55;;;;;;;;;;5016604;28;20032;-80
2022/12/28 06:04:25;;;;;;;15.43;7.90;;;;;;;;;;5017520;28;20034;-79
2022/12/28 06:06:53;;;;;;;15.35;9.60;;;;;;;;;;5024606;28;20458;-80
2022/12/28 06:09:19;;;;;;;16.27;9.05;;;;;;;;;;5035998;28;20026;-80
2022/12/28 06:11:45;;;;;;;11.45;7.72;;;;;;;;;;5037042;28;20022;-79
2022/12/28 06:14:11;;;;;;;12.18;7.47;;;;;;;;;;5016722;28;20037;-79
2022/12/28 06:16:39;;;;;;;16.63;8.80;;;;;;;;;;5016997;28;20030;-83
2022/12/28 06:19:14;;;;;;;13.18;7.85;;;;;;;;;;5027957;28;20025;-80
2022/12/28 06:21:40;;;;;;;12.35;7.43;;;;;;;;;;5036074;28;20013;-81
2022/12/28 06:24:06;;;;;;;15.85;7.90;;;;;;;;;;5029853;28;20037;-80
2022/12/28 06:26:33;;;;;;;12.27;6.95;;;;;;;;;;5016838;28;20025;-80
2022/12/28 06:29:00;;;;;;;11.05;7.55;;;;;;;;;;5017387;28;20030;-80
2022/12/28 06:31:31;;;;;;;13.20;7.45;;;;;;;;;;5019127;28;20022;-80
2022/12/28 06:33:58;;;;;;;27.23;13.00;;;;;;;;;;5017268;28;20022;-79
2022/12/28 06:36:24;;;;;;;37.88;20.23;;;;;;;;;;5014296;28;20045;-80
2022/12/28 06:38:53;;;;;;;33.53;16.52;;;;;;;;;;5019117;28;20052;-80
2022/12/28 06:41:19;;;;;;;36.25;17.85;;;;;;;;;;5016779;28;20052;-79
2022/12/28 06:43:46;;;;;;;24.63;12.63;;;;;;;;;;5019143;28;20030;-79
2022/12/28 06:46:12;;;;;;;21.48;10.07;;;;;;;;;;5017708;28;20026;-79
2022/12/28 06:48:39;;;;;;;14.27;8.65;;;;;;;;;;5015486;28;20042;-80
2022/12/28 06:51:10;;;;;;;20.27;7.93;;;;;;;;;;5016842;28;20034;-79
2022/12/28 06:53:37;;;;;;;13.05;7.95;;;;;;;;;;5014845;28;20052;-79
2022/12/28 06:56:04;;;;;;;17.58;8.07;;;;;;;;;;5014645;28;20472;-79
2022/12/28 06:58:31;;;;;;;11.07;6.90;;;;;;;;;;5016193;28;20026;-79
2022/12/28 07:00:57;;;;;;;16.15;8.57;;;;;;;;;;5021152;28;20038;-79
2022/12/28 07:03:24;;;;;;;16.23;8.75;;;;;;;;;;5019206;28;20022;-79
2022/12/28 07:05:50;;;;;;;15.30;8.00;;;;;;;;;;5011290;28;20088;-79
2022/12/28 07:08:17;;;;;;;17.48;9.15;;;;;;;;;;5017466;28;20026;-82
2022/12/28 07:10:43;;;;;;;19.52;10.80;;;;;;;;;;5024816;28;20392;-79
2022/12/28 07:13:09;;;;;;;19.83;11.50;;;;;;;;;;5021602;28;20034;-79
2022/12/28 07:15:36;;;;;;;15.98;9.57;;;;;;;;;;5021986;28;20383;-80
2022/12/28 07:18:02;;;;;;;18.48;10.68;;;;;;;;;;5020524;28;20053;-78
2022/12/28 07:20:28;;;;;;;19.23;11.02;;;;;;;;;;5023652;28;20030;-77
2022/12/28 07:22:54;;;;;;;20.90;13.95;;;;;;;;;;5021114;28;20076;-79
2022/12/28 07:25:20;;;;;;;18.00;10.85;;;;;;;;;;5021707;28;20064;-79
2022/12/28 07:27:46;;;;;;;17.90;10.23;;;;;;;;;;5020875;28;20038;-80
2022/12/28 07:30:13;;;;;;;14.25;8.65;;;;;;;;;;5021240;28;20026;-80
2022/12/28 07:32:39;;;;;;;13.32;7.90;;;;;;;;;;5020888;28;20068;-80
2022/12/28 07:35:06;;;;;;;12.85;8.18;;;;;;;;;;5021553;28;20026;-81
2022/12/28 07:37:32;;;;;;;14.55;8.60;;;;;;;;;;5024492;28;20100;-79
2022/12/28 07:39:58;;;;;;;15.38;9.23;;;;;;;;;;5027838;28;20041;-80
2022/12/28 07:42:24;;;;;;;14.93;8.07;;;;;;;;;;5007658;28;20034;-79
2022/12/28 07:44:51;;;;;;;15.40;8.68;;;;;;;;;;5019883;28;20057;-78
2022/12/28 07:47:17;;;;;;;13.18;7.80;;;;;;;;;;5038576;28;20033;-80
2022/12/28 07:49:43;;;;;;;14.38;8.10;;;;;;;;;;5036305;28;20037;-80
2022/12/28 07:52:09;;;;;;;13.60;7.90;;;;;;;;;;5027224;28;20369;-79
2022/12/28 07:54:35;;;;;;;13.20;7.82;;;;;;;;;;5026855;28;20052;-80
2022/12/28 07:57:01;;;;;;;11.75;7.25;;;;;;;;;;5027753;28;20014;-80
2022/12/28 07:59:27;;;;;;;16.40;8.20;;;;;;;;;;5030541;28;20069;-80
2022/12/28 08:01:53;;;;;;;13.32;7.82;;;;;;;;;;5028152;28;20112;-80
2022/12/28 08:04:19;;;;;;;14.25;8.57;;;;;;;;;;5030141;28;20052;-80
2022/12/28 08:06:45;;;;;;;14.70;8.23;;;;;;;;;;5047099;28;20088;-80
2022/12/28 08:09:13;;;;;;;16.77;8.38;;;;;;;;;;5027509;28;20042;-80
2022/12/28 08:11:44;;;;;;;15.02;7.95;;;;;;;;;;5016517;28;20033;-79
2022/12/28 08:14:10;;;;;;;15.60;8.10;;;;;;;;;;5028504;28;20034;-80
2022/12/28 08:16:38;;;;;;;14.93;8.20;;;;;;;;;;5040114;28;20049;-80
2022/12/28 08:19:04;;;;;;;15.45;7.40;;;;;;;;;;5026918;28;20025;-79
2022/12/28 08:21:32;;;;;;;14.73;8.52;;;;;;;;;;5027338;28;20018;-80
2022/12/28 08:23:58;;;;;;;12.63;7.55;;;;;;;;;;5027371;28;20030;-80
2022/12/28 08:26:25;;;;;;;13.90;8.00;;;;;;;;;;5044717;28;20053;-80
2022/12/28 08:28:53;;;;;;;11.70;7.53;;;;;;;;;;5045813;28;20033;-80
2022/12/28 08:31:21;;;;;;;12.55;7.40;;;;;;;;;;5035702;28;20026;-81
2022/12/28 08:33:47;;;;;;;13.05;7.72;;;;;;;;;;5023733;28;20026;-80
2022/12/28 08:36:14;;;;;;;15.48;10.63;;;;;;;;;;5034976;28;20414;-80
2022/12/28 08:38:40;;;;;;;23.60;13.70;;;;;;;;;;5046831;28;20031;-80
2022/12/28 08:41:08;;;;;;;31.48;17.58;;;;;;;;;;5045046;28;20052;-80
2022/12/28 08:43:34;;;;;;;16.42;10.02;;;;;;;;;;5028802;28;20036;-80
2022/12/28 08:46:01;;;;;;;16.13;9.38;;;;;;;;;;5031086;28;20057;-80
2022/12/28 08:48:28;;;;;;;13.95;8.25;;;;;;;;;;5035756;28;20046;-79
2022/12/28 08:50:54;;;;;;;27.95;12.73;;;;;;;;;;5021008;28;20034;-79
2022/12/28 08:53:23;;;;;;;18.83;11.23;;;;;;;;;;5018585;28;20030;-80
2022/12/28 08:55:50;;;;;;;18.73;10.00;;;;;;;;;;5024383;28;20045;-80
2022/12/28 08:58:16;;;;;;;31.60;15.45;;;;;;;;;;5032552;28;20022;-81
2022/12/28 09:00:42;;;;;;;23.85;12.77;;;;;;;;;;5041185;28;20041;-81
2022/12/28 09:03:08;;;;;;;24.40;13.15;;;;;;;;;;5029759;28;20053;-81
2022/12/28 09:05:40;;;;;;;15.88;8.95;;;;;;;;;;5022646;28;20032;-81
2022/12/28 09:08:06;;;;;;;16.02;8.95;;;;;;;;;;5040496;28;20035;-81
2022/12/28 09:10:32;;;;;;;21.30;11.18;;;;;;;;;;5039034;28;20037;-79
2022/12/28 09:12:58;;;;;;;23.05;12.60;;;;;;;;;;5039976;28;20037;-80
2022/12/28 09:15:24;;;;;;;16.85;9.50;;;;;;;;;;5030366;28;20099;-81
2022/12/28 09:17:50;;;;;;;14.00;8.88;;;;;;;;;;5017516;28;20023;-81
2022/12/28 09:20:16;;;;;;;14.60;8.02;;;;;;;;;;4998208;28;20491;-80
2022/12/28 09:22:42;;;;;;;14.73;9.20;;;;;;;;;;5012187;28;20195;-80
2022/12/28 09:25:08;;;;;;;13.70;8.60;;;;;;;;;;5020190;28;20026;-81
2022/12/28 09:27:34;;;;;;;15.27;9.25;;;;;;;;;;5018623;28;20096;-81
2022/12/28 09:30:00;;;;;;;13.68;8.45;;;;;;;;;;5018114;28;20014;-81
2022/12/28 09:32:26;;;;;;;12.95;8.68;;;;;;;;;;5019366;28;20030;-81
2022/12/28 09:34:52;;;;;;;15.73;8.98;;;;;;;;;;5019639;28;20037;-81
2022/12/28 09:37:18;;;;;;;14.55;9.25;;;;;;;;;;5027572;28;20090;-81
2022/12/28 09:39:44;;;;;;;15.18;8.93;;;;;;;;;;5022673;28;20022;-81
2022/12/28 09:42:27;;;;;;;12.95;8.15;;;;;;;;;;5019732;28;20029;-81
2022/12/28 09:44:56;;;;;;;13.40;8.52;;;;;;;;;;5028588;28;20047;-81
2022/12/28 09:47:26;;;;;;;12.82;8.98;;;;;;;;;;5021543;28;20037;-81
2022/12/28 09:49:52;;;;;;;17.15;9.27;;;;;;;;;;5017737;28;20087;-80
2022/12/28 09:52:24;;;;;;;11.68;8.15;;;;;;;;;;5017900;28;20026;-81
2022/12/28 09:54:50;;;;;;;14.98;8.30;;;;;;;;;;5024923;28;20037;-81
2022/12/28 09:57:18;;;;;;;12.55;7.78;;;;;;;;;;5030503;28;20611;-81
2022/12/28 09:59:44;;;;;;;11.98;8.15;;;;;;;;;;5022206;28;20341;-81
2022/12/28 10:02:19;;;;;;;10.18;6.78;;;;;;;;;;5022522;28;20028;-80
2022/12/28 10:04:47;;;;;;;13.52;8.43;;;;;;;;;;5030919;28;20041;-81
2022/12/28 10:07:13;;;;;;;11.60;7.85;;;;;;;;;;5031216;28;20030;-80
2022/12/28 10:09:39;;;;;;;11.48;7.75;;;;;;;;;;5021533;28;20033;-80
2022/12/28 10:12:16;;;;;;;12.50;7.93;;;;;;;;;;5017627;28;20029;-80
2022/12/28 10:14:42;;;;;;;15.40;7.63;;;;;;;;;;5017202;28;20056;-80
2022/12/28 10:17:11;;;;;;;12.05;7.05;;;;;;;;;;5017636;28;20106;-81
2022/12/28 10:19:37;;;;;;;11.57;6.72;;;;;;;;;;5016783;28;20026;-79
2022/12/28 10:22:12;;;;;;;12.50;7.13;;;;;;;;;;5019055;28;20057;-80
2022/12/28 10:24:39;;;;;;;10.70;6.95;;;;;;;;;;5018045;28;20046;-80
2022/12/28 10:27:05;;;;;;;11.45;7.30;;;;;;;;;;5026250;28;20052;-80
2022/12/28 10:29:32;;;;;;;18.13;10.55;;;;;;;;;;5016545;28;20036;-80
2022/12/28 10:32:08;;;;;;;14.30;7.38;;;;;;;;;;5016183;28;20037;-80
2022/12/28 10:34:35;;;;;;;12.40;7.10;;;;;;;;;;5017368;28;20056;-81
2022/12/28 10:37:13;;;;;;;14.25;8.52;;;;;;;;;;5016758;28;20030;-81
2022/12/28 10:39:39;;;;;;;11.60;7.78;;;;;;;;;;5017500;28;20104;-81
2022/12/28 10:42:18;;;;;;;11.88;7.72;;;;;;;;;;5017720;28;20044;-81
2022/12/28 10:44:48;;;;;;;10.38;6.28;;;;;;;;;;5018545;28;20084;-80
2022/12/28 10:47:43;;;;;;;13.95;7.07;;;;;;;;;;5020910;28;20237;-82
2022/12/28 10:50:29;;;;;;;12.32;6.93;;;;;;;;;;5000583;28;20518;-81
2022/12/28 10:52:57;;;;;;;12.73;7.45;;;;;;;;;;5006825;28;20072;-81
2022/12/28 10:55:27;;;;;;;11.50;7.32;;;;;;;;;;5017895;28;20019;-81
2022/12/28 10:57:53;;;;;;;10.40;6.38;;;;;;;;;;5016384;28;20056;-80
2022/12/28 11:00:20;;;;;;;9.93;6.65;;;;;;;;;;5017703;28;20046;-80
2022/12/28 11:02:46;;;;;;;8.75;6.72;;;;;;;;;;5020009;28;20041;-81
2022/12/28 11:05:20;;;;;;;11.35;6.55;;;;;;;;;;5017761;28;20105;-81
2022/12/28 11:07:49;;;;;;;9.10;6.15;;;;;;;;;;5003275;28;20033;-81
2022/12/28 11:10:21;;;;;;;12.43;7.03;;;;;;;;;;5017747;28;20044;-80
2022/12/28 11:12:48;;;;;;;10.93;7.03;;;;;;;;;;5017217;28;20094;-83
2022/12/28 11:15:15;;;;;;;10.18;6.78;;;;;;;;;;5017843;28;20050;-80
2022/12/28 11:17:41;;;;;;;11.45;7.13;;;;;;;;;;5023309;28;20064;-80
2022/12/28 11:20:18;;;;;;;11.25;7.10;;;;;;;;;;5020412;28;20037;-80
2022/12/28 11:22:44;;;;;;;10.98;6.95;;;;;;;;;;5015543;28;20049;-81
2022/12/28 11:28:17;;;;;;;12.80;7.28;;;;;;;;;;5009226;28;20121;-81
2022/12/28 11:30:44;;;;;;;10.18;6.90;;;;;;;;;;5021252;28;20030;-81
2022/12/28 11:33:25;;;;;;;12.55;6.88;;;;;;;;;;5025586;28;20473;-81
2022/12/28 11:35:53;;;;;;;12.38;7.20;;;;;;;;;;5017995;28;20060;-81
2022/12/28 11:38:38;;;;;;;12.68;6.85;;;;;;;;;;5020736;28;20026;-81
2022/12/28 11:41:05;;;;;;;14.77;6.25;;;;;;;;;;5025061;28;20111;-81
2022/12/28 11:43:34;;;;;;;11.35;5.97;;;;;;;;;;5022643;28;20025;-81
2022/12/28 11:46:04;;;;;;;9.43;5.80;;;;;;;;;;5025644;28;20026;-82
2022/12/28 11:48:42;;;;;;;9.93;6.43;;;;;;;;;;5021789;28;20037;-81
2022/12/28 11:51:14;;;;;;;9.23;5.60;;;;;;;;;;5018258;28;20026;-81
2022/12/28 11:53:43;;;;;;;8.93;6.07;;;;;;;;;;5007582;28;20030;-81
2022/12/28 11:56:11;;;;;;;11.27;6.47;;;;;;;;;;5019981;28;20018;-82
2022/12/28 11:58:40;;;;;;;13.02;7.40;;;;;;;;;;5020766;28;20025;-81
2022/12/28 12:01:11;;;;;;;15.63;7.20;;;;;;;;;;5006712;28;20048;-81
2022/12/28 12:03:55;;;;;;;13.50;6.82;;;;;;;;;;5015973;28;20018;-82
2022/12/28 12:06:40;;;;;;;11.45;6.82;;;;;;;;;;5031779;28;20056;-81
2022/12/28 12:09:18;;;;;;;9.10;6.50;;;;;;;;;;5020593;28;20076;-81
2022/12/28 12:11:45;;;;;;;13.52;7.40;;;;;;;;;;5019409;28;20038;-81
2022/12/28 12:14:12;;;;;;;12.88;6.47;;;;;;;;;;5020718;28;20045;-81
2022/12/28 12:16:49;;;;;;;12.98;6.72;;;;;;;;;;5016853;28;20060;-81
2022/12/28 12:19:22;;;;;;;13.52;6.90;;;;;;;;;;5021918;28;20018;-80
2022/12/28 12:21:58;;;;;;;10.07;6.30;;;;;;;;;;5006474;28;20117;-80
2022/12/28 12:24:26;;;;;;;11.15;6.70;;;;;;;;;;5025325;28;20078;-80
2022/12/28 12:27:04;;;;;;;10.88;6.32;;;;;;;;;;5018289;28;20034;-81
2022/12/28 12:29:32;;;;;;;11.93;6.32;;;;;;;;;;5019975;28;20026;-81
2022/12/28 12:32:02;;;;;;;9.82;5.90;;;;;;;;;;5020175;28;20552;-81
2022/12/28 12:34:49;;;;;;;12.02;5.95;;;;;;;;;;5017933;28;20055;-81
2022/12/28 12:37:41;;;;;;;9.07;5.88;;;;;;;;;;5025745;28;20038;-81
2022/12/28 12:40:15;;;;;;;12.05;6.43;;;;;;;;;;5003733;28;20061;-81
2022/12/28 12:42:47;;;;;;;9.68;6.30;;;;;;;;;;5031166;28;20026;-81
2022/12/28 12:45:16;;;;;;;11.40;7.07;;;;;;;;;;5028728;28;20109;-81
2022/12/28 12:47:50;;;;;;;11.60;7.00;;;;;;;;;;5038070;28;20369;-81
2022/12/28 12:50:34;;;;;;;10.80;6.60;;;;;;;;;;5041998;28;20029;-81
2022/12/28 12:53:12;;;;;;;11.50;6.50;;;;;;;;;;5041305;28;20029;-81
2022/12/28 12:55:57;;;;;;;10.20;6.15;;;;;;;;;;5023280;28;20483;-81
2022/12/28 12:58:28;;;;;;;8.50;5.30;;;;;;;;;;5040039;28;20037;-81
2022/12/28 13:00:55;;;;;;;10.77;6.45;;;;;;;;;;5038755;28;20132;-79
2022/12/28 13:03:38;;;;;;;10.57;6.38;;;;;;;;;;5037529;28;20483;-81
2022/12/28 13:06:04;;;;;;;9.05;6.38;;;;;;;;;;5031298;28;20417;-82
2022/12/28 13:08:39;;;;;;;10.10;6.68;;;;;;;;;;5037873;28;20035;-82
2022/12/28 13:11:08;;;;;;;9.65;6.32;;;;;;;;;;5039051;28;20018;-81
2022/12/28 13:13:35;;;;;;;11.45;6.63;;;;;;;;;;5038483;28;20029;-81
2022/12/28 13:16:03;;;;;;;11.20;6.60;;;;;;;;;;5007704;28;20339;-82
2022/12/28 13:18:29;;;;;;;10.90;6.57;;;;;;;;;;4998208;28;20025;-81
2022/12/28 13:20:56;;;;;;;10.38;7.00;;;;;;;;;;4999481;28;20105;-81
2022/12/28 13:23:23;;;;;;;9.35;6.00;;;;;;;;;;5000958;28;20053;-81
2022/12/28 13:25:51;;;;;;;10.10;6.32;;;;;;;;;;5026517;28;20104;-81
2022/12/28 13:28:26;;;;;;;9.27;6.22;;;;;;;;;;5018383;28;20085;-81
2022/12/28 13:31:03;;;;;;;9.93;6.10;;;;;;;;;;5018466;28;20026;-81
2022/12/28 13:33:29;;;;;;;11.88;6.38;;;;;;;;;;5019943;28;20045;-79
2022/12/28 13:36:10;;;;;;;9.38;6.22;;;;;;;;;;5029465;28;20022;-80
2022/12/28 13:38:37;;;;;;;8.90;5.60;;;;;;;;;;5038253;28;20081;-80
2022/12/28 13:41:03;;;;;;;9.45;5.38;;;;;;;;;;5030509;28;20018;-79
2022/12/28 13:43:44;;;;;;;7.95;5.57;;;;;;;;;;5016081;28;20029;-79
2022/12/28 13:46:12;;;;;;;8.43;4.80;;;;;;;;;;5016570;28;20137;-80
2022/12/28 13:48:39;;;;;;;8.68;5.00;;;;;;;;;;5017116;28;20026;-80
2022/12/28 13:51:09;;;;;;;7.68;4.82;;;;;;;;;;5017113;28;20034;-80
2022/12/28 13:53:35;;;;;;;11.07;5.72;;;;;;;;;;5020331;28;20026;-80
2022/12/28 13:56:03;;;;;;;8.27;5.68;;;;;;;;;;5017857;28;20038;-80
2022/12/28 13:58:37;;;;;;;10.23;5.97;;;;;;;;;;5018148;28;20036;-80
2022/12/28 14:01:06;;;;;;;8.90;5.80;;;;;;;;;;5021447;28;20041;-79
2022/12/28 14:03:35;;;;;;;8.68;6.15;;;;;;;;;;5016113;28;20037;-80
2022/12/28 14:06:02;;;;;;;9.07;6.15;;;;;;;;;;5014861;28;20034;-79
2022/12/28 14:08:29;;;;;;;10.50;6.03;;;;;;;;;;5017271;28;20022;-79
2022/12/28 14:10:56;;;;;;;9.13;5.40;;;;;;;;;;5015984;28;20523;-79
2022/12/28 14:13:22;;;;;;;9.57;5.95;;;;;;;;;;5018390;28;20053;-79
2022/12/28 14:15:49;;;;;;;11.00;6.13;;;;;;;;;;5016091;28;20041;-79
2022/12/28 14:18:15;;;;;;;8.73;5.55;;;;;;;;;;5015222;28;20103;-79
2022/12/28 14:20:48;;;;;;;8.65;5.13;;;;;;;;;;5014654;28;20026;-80
2022/12/28 14:23:22;;;;;;;8.05;5.45;;;;;;;;;;5016125;28;20025;-80
2022/12/28 14:25:48;;;;;;;8.88;5.85;;;;;;;;;;5017773;28;20037;-80
2022/12/28 14:28:21;;;;;;;8.10;5.20;;;;;;;;;;5029339;28;20075;-78
2022/12/28 14:30:51;;;;;;;8.57;5.00;;;;;;;;;;5034745;28;20056;-80
2022/12/28 14:33:19;;;;;;;9.50;5.13;;;;;;;;;;5036324;28;20101;-79
2022/12/28 14:35:48;;;;;;;8.15;5.05;;;;;;;;;;5017708;28;20101;-79
2022/12/28 14:38:19;;;;;;;10.52;6.00;;;;;;;;;;5014833;28;20042;-79
2022/12/28 14:40:51;;;;;;;8.98;5.03;;;;;;;;;;5014543;28;20041;-80
2022/12/28 14:43:28;;;;;;;9.48;4.82;;;;;;;;;;5015412;28;20053;-80
2022/12/28 14:45:54;;;;;;;8.38;5.15;;;;;;;;;;5015499;28;20030;-80
2022/12/28 14:48:31;;;;;;;7.35;4.82;;;;;;;;;;5020251;28;20056;-79
2022/12/28 14:51:05;;;;;;;8.35;5.95;;;;;;;;;;5014616;28;20132;-80
2022/12/28 14:53:31;;;;;;;8.13;5.85;;;;;;;;;;5025819;28;20694;-78
2022/12/28 14:55:57;;;;;;;9.90;5.80;;;;;;;;;;4996269;28;20033;-82
2022/12/28 14:58:25;;;;;;;9.70;6.20;;;;;;;;;;5027275;28;20514;-80
2022/12/28 15:00:56;;;;;;;10.10;5.97;;;;;;;;;;5015178;28;20048;-79
2022/12/28 15:03:22;;;;;;;9.20;5.30;;;;;;;;;;5016998;28;20041;-79
2022/12/28 15:05:50;;;;;;;9.20;5.28;;;;;;;;;;5016096;28;20030;-80
2022/12/28 15:08:16;;;;;;;11.82;6.55;;;;;;;;;;5015646;28;20120;-79
2022/12/28 15:10:46;;;;;;;11.20;5.78;;;;;;;;;;5016793;28;20443;-79